createdAt,value
2022-10-07T00:03:01.978Z,4.63
2022-10-07T00:08:07.072Z,4.20
2022-10-07T00:13:12.096Z,4.28
2022-10-07T00:18:14.821Z,3.75
2022-10-07T00:23:17.408Z,3.65
2022-10-07T00:28:21.843Z,4.05
2022-10-07T00:33:24.688Z,4.22
2022-10-07T00:38:27.769Z,3.87
2022-10-07T00:43:32.381Z,4.15
2022-10-07T00:48:37.238Z,3.45
2022-10-07T00:53:41.169Z,3.92
2022-10-07T00:58:49.000Z,5.35
2022-10-07T01:03:52.184Z,5.22
2022-10-07T01:08:55.752Z,4.10
2022-10-07T01:14:06.064Z,4.82
2022-10-07T01:19:15.033Z,3.30
2022-10-07T01:24:23.937Z,3.70
2022-10-07T01:29:29.856Z,3.55
2022-10-07T01:34:34.586Z,3.80
2022-10-07T01:39:39.645Z,3.85
2022-10-07T01:44:45.335Z,3.13
2022-10-07T01:49:48.225Z,4.13
2022-10-07T01:55:02.273Z,3.22
2022-10-07T02:00:08.884Z,3.20
2022-10-07T02:05:14.031Z,3.85
2022-10-07T02:10:21.675Z,4.10
2022-10-07T02:15:28.495Z,4.03
2022-10-07T02:20:37.721Z,4.15
2022-10-07T02:25:47.025Z,3.65
2022-10-07T02:30:53.505Z,4.40
2022-10-07T02:35:58.097Z,4.28
2022-10-07T02:41:06.201Z,4.05
2022-10-07T02:46:14.085Z,3.75
2022-10-07T02:51:21.233Z,4.40
2022-10-07T02:56:25.691Z,4.75
2022-10-07T03:01:32.191Z,4.35
2022-10-07T03:06:36.708Z,4.78
2022-10-07T03:11:39.948Z,4.32
2022-10-07T03:16:45.006Z,5.88
2022-10-07T03:26:50.165Z,5.35
2022-10-07T03:31:54.855Z,5.03
2022-10-07T03:37:00.641Z,5.53
2022-10-07T03:42:03.417Z,5.75
2022-10-07T03:47:10.704Z,6.37
2022-10-07T03:52:14.608Z,5.95
2022-10-07T03:57:35.090Z,5.83
2022-10-07T04:02:39.412Z,5.90
2022-10-07T04:07:44.969Z,5.72
2022-10-07T04:12:49.464Z,5.25
2022-10-07T04:22:56.540Z,5.90
2022-10-07T04:28:00.022Z,5.85
2022-10-07T04:33:04.288Z,5.65
2022-10-07T04:38:10.589Z,5.70
2022-10-07T04:43:27.609Z,5.68
2022-10-07T04:48:30.883Z,5.60
2022-10-07T04:53:35.459Z,7.10
2022-10-07T04:58:38.214Z,6.95
2022-10-07T05:03:41.385Z,7.32
2022-10-07T05:08:45.907Z,7.77
2022-10-07T05:13:49.075Z,7.70
2022-10-07T05:18:51.792Z,7.88
2022-10-07T05:23:55.825Z,6.00
2022-10-07T05:28:59.112Z,5.25
2022-10-07T05:34:03.085Z,6.20
2022-10-07T05:44:09.757Z,4.55
2022-10-07T05:49:12.875Z,6.25
2022-10-07T05:54:15.777Z,7.30
2022-10-07T05:59:20.487Z,4.82
2022-10-07T06:04:26.223Z,8.23
2022-10-07T06:09:47.364Z,7.38
2022-10-07T06:14:56.310Z,7.95
2022-10-07T06:19:59.042Z,8.70
2022-10-07T06:25:02.657Z,5.57
2022-10-07T06:30:09.391Z,9.38
2022-10-07T06:35:12.034Z,9.80
2022-10-07T06:40:20.511Z,8.48
2022-10-07T06:45:24.724Z,9.40
2022-10-07T06:50:27.928Z,8.75
2022-10-07T06:55:38.050Z,8.23
2022-10-07T07:00:42.679Z,6.82
2022-10-07T07:05:46.401Z,8.07
2022-10-07T07:10:51.087Z,7.82
2022-10-07T07:15:59.131Z,7.73
2022-10-07T07:21:03.355Z,8.38
2022-10-07T07:26:06.357Z,8.20
2022-10-07T07:31:13.162Z,8.63
2022-10-07T07:36:17.043Z,8.98
2022-10-07T07:41:21.012Z,8.07
2022-10-07T07:46:26.852Z,8.65
2022-10-07T07:51:29.664Z,8.88
2022-10-07T07:56:33.056Z,8.45
2022-10-07T08:01:37.355Z,8.23
2022-10-07T08:06:40.705Z,8.57
2022-10-07T08:11:45.561Z,9.65
2022-10-07T08:16:50.499Z,9.10
2022-10-07T08:21:53.630Z,9.43
2022-10-07T08:26:56.830Z,9.55
2022-10-07T08:32:01.095Z,10.77
2022-10-07T08:37:03.820Z,9.30
2022-10-07T08:42:14.077Z,10.70
2022-10-07T08:47:24.621Z,10.43
2022-10-07T08:52:30.429Z,9.70
2022-10-07T08:57:46.979Z,10.50
2022-10-07T09:03:00.178Z,9.15
2022-10-07T09:08:06.171Z,11.68
2022-10-07T09:13:12.899Z,10.30
2022-10-07T09:18:20.792Z,9.73
2022-10-07T09:23:25.112Z,9.98
2022-10-07T09:28:30.550Z,10.40
2022-10-07T09:33:37.235Z,9.10
2022-10-07T09:38:40.641Z,8.30
2022-10-07T09:43:54.099Z,10.30
2022-10-07T09:48:59.373Z,11.18
2022-10-07T09:54:03.797Z,9.90
2022-10-07T09:59:31.164Z,8.63
2022-10-07T10:04:36.456Z,10.32
2022-10-07T10:09:39.134Z,10.38
2022-10-07T10:14:47.279Z,11.48
2022-10-07T10:19:52.358Z,8.65
2022-10-07T10:25:13.145Z,10.82
2022-10-07T10:30:20.237Z,10.75
2022-10-07T10:35:26.927Z,8.68
2022-10-07T10:40:33.894Z,9.77
2022-10-07T10:45:38.890Z,10.70
2022-10-07T10:50:52.434Z,11.80
2022-10-07T10:56:07.090Z,11.23
2022-10-07T11:01:14.193Z,12.10
2022-10-07T11:06:19.314Z,11.32
2022-10-07T11:11:23.849Z,12.43
2022-10-07T11:16:28.856Z,13.50
2022-10-07T11:21:35.245Z,10.38
2022-10-07T11:26:40.245Z,10.85
2022-10-07T11:31:46.292Z,11.68
2022-10-07T11:36:54.526Z,10.57
2022-10-07T11:42:00.022Z,10.60
2022-10-07T11:47:08.665Z,11.05
2022-10-07T11:52:21.298Z,10.93
2022-10-07T11:57:26.986Z,11.50
2022-10-07T12:02:44.141Z,10.43
2022-10-07T12:08:02.231Z,10.48
2022-10-07T12:13:23.536Z,9.75
2022-10-07T12:18:29.997Z,8.93
2022-10-07T12:23:41.521Z,10.10
2022-10-07T12:28:47.507Z,10.52
2022-10-07T12:33:56.474Z,9.30
2022-10-07T12:39:19.089Z,9.07
2022-10-07T12:44:24.565Z,8.63
2022-10-07T12:49:31.230Z,8.48
2022-10-07T12:54:35.157Z,8.07
2022-10-07T12:59:50.400Z,9.45
2022-10-07T13:05:08.132Z,9.07
2022-10-07T13:10:19.910Z,10.00
2022-10-07T13:15:30.414Z,10.13
2022-10-07T13:20:43.264Z,11.93
2022-10-07T13:25:48.119Z,11.80
2022-10-07T13:30:53.129Z,11.90
2022-10-07T13:36:07.809Z,11.32
2022-10-07T13:41:16.590Z,10.85
2022-10-07T13:46:21.155Z,10.45
2022-10-07T13:51:33.080Z,10.63
2022-10-07T13:56:42.147Z,8.63
2022-10-07T14:01:50.497Z,7.80
2022-10-07T14:06:56.119Z,8.65
2022-10-07T14:12:04.303Z,8.57
2022-10-07T14:17:18.328Z,7.35
2022-10-07T14:22:22.952Z,7.82
2022-10-07T14:27:51.862Z,9.27
2022-10-07T14:33:28.442Z,8.77
2022-10-07T14:38:31.606Z,7.88
2022-10-07T14:43:34.904Z,7.20
2022-10-07T14:48:39.496Z,7.50
2022-10-07T14:53:43.391Z,7.43
2022-10-07T14:58:46.676Z,7.22
2022-10-07T15:08:54.423Z,8.10
2022-10-07T15:13:57.262Z,8.20
2022-10-07T15:19:00.087Z,8.52
2022-10-07T15:24:04.868Z,9.30
2022-10-07T15:29:08.623Z,9.43
2022-10-07T15:34:12.262Z,8.85
2022-10-07T15:39:19.231Z,9.43
2022-10-07T15:44:23.287Z,9.80
2022-10-07T15:49:26.649Z,9.75
2022-10-07T15:59:33.398Z,11.18
2022-10-07T16:04:37.177Z,9.93
2022-10-07T16:09:40.769Z,10.45
2022-10-07T16:19:48.096Z,10.07
2022-10-07T16:24:52.109Z,9.65
2022-10-07T16:30:12.683Z,10.05
2022-10-07T16:35:17.368Z,11.70
2022-10-07T16:40:20.752Z,11.35
2022-10-07T16:45:23.869Z,10.67
2022-10-07T16:50:28.840Z,12.05
2022-10-07T16:55:32.120Z,11.13
2022-10-07T17:00:35.383Z,12.30
2022-10-07T17:05:39.609Z,11.82
2022-10-07T17:10:42.698Z,10.88
2022-10-07T17:15:50.425Z,11.65
2022-10-07T17:20:57.583Z,10.35
2022-10-07T17:26:05.233Z,11.57
2022-10-07T17:31:08.620Z,15.57
2022-10-07T17:36:13.485Z,11.80
2022-10-07T17:41:19.945Z,11.65
2022-10-07T17:46:25.738Z,11.95
2022-10-07T17:51:31.322Z,13.05
2022-10-07T17:56:34.990Z,12.20
2022-10-07T18:01:38.210Z,12.85
2022-10-07T18:06:43.307Z,11.50
2022-10-07T18:12:04.675Z,13.27
2022-10-07T18:17:09.819Z,16.45
2022-10-07T18:27:16.976Z,13.60
2022-10-07T18:32:20.637Z,15.43
2022-10-07T18:37:24.081Z,15.63
2022-10-07T18:42:28.234Z,13.32
2022-10-07T18:47:31.741Z,15.70
2022-10-07T18:52:34.768Z,16.08
2022-10-07T18:57:38.890Z,16.90
2022-10-07T19:02:44.943Z,16.73
2022-10-07T19:07:48.710Z,15.63
2022-10-07T19:18:13.858Z,13.77
2022-10-07T19:23:16.721Z,13.63
2022-10-07T19:33:25.986Z,4.80
2022-10-07T19:38:29.588Z,12.38
2022-10-07T19:43:35.199Z,14.45
2022-10-07T19:48:41.012Z,12.10
2022-10-07T19:53:47.249Z,10.75
2022-10-07T19:58:51.623Z,11.57
2022-10-07T20:03:59.114Z,12.52
2022-10-07T20:09:01.874Z,12.43
2022-10-07T20:14:06.350Z,13.70
2022-10-07T20:19:15.467Z,13.88
2022-10-07T20:24:18.518Z,13.50
2022-10-07T20:29:25.321Z,15.73
2022-10-07T20:34:29.694Z,14.57
2022-10-07T20:44:52.907Z,12.10
2022-10-07T20:49:59.532Z,11.95
2022-10-07T20:55:02.277Z,14.20
2022-10-07T21:00:16.677Z,12.20
2022-10-07T21:05:26.026Z,12.38
2022-10-07T21:15:31.542Z,7.28
2022-10-07T21:20:36.196Z,13.63
2022-10-07T21:25:39.820Z,14.10
2022-10-07T21:30:43.459Z,10.93
2022-10-07T21:35:47.477Z,13.20
2022-10-07T21:45:53.058Z,13.65
2022-10-07T21:50:57.345Z,5.63
2022-10-07T21:56:02.732Z,14.60
2022-10-07T22:01:06.274Z,10.25
2022-10-07T22:06:11.654Z,12.13
2022-10-07T22:11:15.006Z,8.63
2022-10-07T22:16:19.029Z,13.27
2022-10-07T22:21:28.815Z,10.45
2022-10-07T22:26:32.639Z,9.63
2022-10-07T22:31:41.841Z,10.95
2022-10-07T22:36:45.793Z,10.32
2022-10-07T22:41:49.710Z,12.13
2022-10-07T22:46:59.213Z,11.93
2022-10-07T22:52:03.561Z,13.85
2022-10-07T23:02:10.472Z,11.53
2022-10-07T23:07:17.988Z,11.50
2022-10-07T23:12:20.622Z,11.63
2022-10-07T23:17:23.251Z,11.77
2022-10-07T23:22:27.617Z,12.13
2022-10-07T23:27:30.197Z,12.00
2022-10-07T23:32:34.022Z,12.52
2022-10-07T23:37:38.377Z,11.25
2022-10-07T23:42:41.069Z,11.20
2022-10-07T23:47:43.987Z,10.27
2022-10-07T23:52:48.285Z,11.80
2022-10-07T23:57:51.123Z,9.48
